createdAt,value
2022-09-07T00:00:57.413Z,2.97
2022-09-07T00:03:25.342Z,2.95
2022-09-07T00:05:53.847Z,1.50
2022-09-07T00:10:57.504Z,1.65
2022-09-07T00:13:29.211Z,2.55
2022-09-07T00:15:57.323Z,2.95
2022-09-07T00:18:25.349Z,2.57
2022-09-07T00:21:07.854Z,1.83
2022-09-07T00:23:37.353Z,2.38
2022-09-07T00:26:11.226Z,2.45
2022-09-07T00:28:39.796Z,3.35
2022-09-07T00:31:18.213Z,1.48
2022-09-07T00:33:46.900Z,3.10
2022-09-07T00:36:15.370Z,2.88
2022-09-07T00:38:43.183Z,2.38
2022-09-07T00:41:11.130Z,2.45
2022-09-07T00:43:42.010Z,2.28
2022-09-07T00:46:21.472Z,1.90
2022-09-07T00:49:01.354Z,2.03
2022-09-07T00:51:35.959Z,2.28
2022-09-07T00:54:08.777Z,1.80
2022-09-07T00:56:40.198Z,2.83
2022-09-07T00:59:09.450Z,2.35
2022-09-07T01:01:39.433Z,1.83
2022-09-07T01:04:08.172Z,1.90
2022-09-07T01:06:38.299Z,2.67
2022-09-07T01:09:10.350Z,1.88
2022-09-07T01:11:38.519Z,3.33
2022-09-07T01:14:09.657Z,1.87
2022-09-07T01:16:49.560Z,3.38
2022-09-07T01:19:49.418Z,2.83
2022-09-07T01:22:23.194Z,2.15
2022-09-07T01:25:14.762Z,2.83
2022-09-07T01:28:12.604Z,1.67
2022-09-07T01:30:46.230Z,2.25
2022-09-07T01:33:17.381Z,2.53
2022-09-07T01:35:47.837Z,2.47
2022-09-07T01:38:37.564Z,2.13
2022-09-07T01:41:16.469Z,2.47
2022-09-07T01:46:33.409Z,2.55
2022-09-07T01:49:06.412Z,1.92
2022-09-07T01:51:38.762Z,3.58
2022-09-07T01:54:35.073Z,3.30
2022-09-07T01:57:06.704Z,3.60
2022-09-07T01:59:44.409Z,2.30
2022-09-07T02:02:23.461Z,2.75
2022-09-07T02:07:56.719Z,2.30
2022-09-07T02:10:39.094Z,2.00
2022-09-07T02:13:21.646Z,4.05
2022-09-07T02:16:00.525Z,3.75
2022-09-07T02:20:59.932Z,2.60
2022-09-07T02:23:35.256Z,2.72
2022-09-07T02:26:06.082Z,2.88
2022-09-07T02:28:36.116Z,2.80
2022-09-07T02:31:04.208Z,2.88
2022-09-07T02:33:32.530Z,2.50
2022-09-07T02:36:01.850Z,2.75
2022-09-07T02:38:29.901Z,4.40
2022-09-07T02:41:00.905Z,2.20
2022-09-07T02:43:30.475Z,3.45
2022-09-07T02:46:07.342Z,3.85
2022-09-07T02:48:57.157Z,2.95
2022-09-07T02:51:49.604Z,2.90
2022-09-07T02:54:35.832Z,3.83
2022-09-07T02:57:09.525Z,2.38
2022-09-07T03:00:01.840Z,3.35
2022-09-07T03:02:39.684Z,2.30
2022-09-07T03:05:23.415Z,3.03
2022-09-07T03:07:54.286Z,4.18
2022-09-07T03:10:22.922Z,2.90
2022-09-07T03:12:51.893Z,3.30
2022-09-07T03:17:54.457Z,2.50
2022-09-07T03:20:23.323Z,3.95
2022-09-07T03:22:52.214Z,2.60
2022-09-07T03:27:47.920Z,3.58
2022-09-07T03:30:15.869Z,2.97
2022-09-07T03:32:43.590Z,4.53
2022-09-07T03:35:14.203Z,3.30
2022-09-07T03:37:42.217Z,3.53
2022-09-07T03:40:13.111Z,3.22
2022-09-07T03:42:41.512Z,2.85
2022-09-07T03:45:10.416Z,2.90
2022-09-07T03:50:07.297Z,2.88
2022-09-07T03:52:35.825Z,3.05
2022-09-07T03:55:04.415Z,3.80
2022-09-07T03:57:32.327Z,3.67
2022-09-07T03:59:59.912Z,4.00
2022-09-07T04:02:27.711Z,3.92
2022-09-07T04:04:55.525Z,4.18
2022-09-07T04:07:23.197Z,3.50
2022-09-07T04:09:53.522Z,4.80
2022-09-07T04:12:21.170Z,3.72
2022-09-07T04:14:49.208Z,3.85
2022-09-07T04:17:16.913Z,3.73
2022-09-07T04:19:44.552Z,4.35
2022-09-07T04:22:12.168Z,3.38
2022-09-07T04:24:39.743Z,5.05
2022-09-07T04:27:07.469Z,3.25
2022-09-07T04:29:35.189Z,4.75
2022-09-07T04:32:03.092Z,3.20
2022-09-07T04:34:30.780Z,3.83
2022-09-07T04:36:58.434Z,5.05
2022-09-07T04:39:26.147Z,3.50
2022-09-07T04:41:54.993Z,4.55
2022-09-07T04:44:22.628Z,3.65
2022-09-07T04:46:50.317Z,5.15
2022-09-07T04:49:18.672Z,4.65
2022-09-07T04:51:46.414Z,5.53
2022-09-07T04:54:14.125Z,7.03
2022-09-07T04:56:41.998Z,5.25
2022-09-07T04:59:09.643Z,5.18
2022-09-07T05:01:37.771Z,5.53
2022-09-07T05:04:05.711Z,5.83
2022-09-07T05:06:33.563Z,5.10
2022-09-07T05:09:01.549Z,5.25
2022-09-07T05:11:30.096Z,5.35
2022-09-07T05:13:59.710Z,4.68
2022-09-07T05:16:28.861Z,5.97
2022-09-07T05:18:59.287Z,5.40
2022-09-07T05:21:29.788Z,7.00
2022-09-07T05:23:58.637Z,5.63
2022-09-07T05:26:28.611Z,6.68
2022-09-07T05:31:45.998Z,6.57
2022-09-07T05:34:30.810Z,6.50
2022-09-07T05:36:59.450Z,5.75
2022-09-07T05:39:27.761Z,6.37
2022-09-07T05:41:55.734Z,8.27
2022-09-07T05:47:11.686Z,6.07
2022-09-07T05:49:39.597Z,6.45
2022-09-07T05:52:07.601Z,4.80
2022-09-07T05:54:35.281Z,5.00
2022-09-07T05:57:03.671Z,4.75
2022-09-07T05:59:31.420Z,5.90
2022-09-07T06:02:00.084Z,4.95
2022-09-07T06:04:27.994Z,4.95
2022-09-07T06:07:21.502Z,4.68
2022-09-07T06:12:31.503Z,5.55
2022-09-07T06:15:01.264Z,5.00
2022-09-07T06:17:31.181Z,6.03
2022-09-07T06:19:58.847Z,6.65
2022-09-07T06:22:30.543Z,7.20
2022-09-07T06:24:58.995Z,6.55
2022-09-07T06:27:26.982Z,7.78
2022-09-07T06:29:54.927Z,6.68
2022-09-07T06:35:11.074Z,6.75
2022-09-07T06:37:39.065Z,8.40
2022-09-07T06:40:07.929Z,5.78
2022-09-07T06:42:35.656Z,7.05
2022-09-07T06:45:04.369Z,6.78
2022-09-07T06:47:31.990Z,5.93
2022-09-07T06:49:59.565Z,6.35
2022-09-07T06:52:28.245Z,5.00
2022-09-07T06:54:59.405Z,5.53
2022-09-07T06:57:27.468Z,5.90
2022-09-07T06:59:55.298Z,5.90
2022-09-07T07:02:22.934Z,5.93
2022-09-07T07:04:50.639Z,4.68
2022-09-07T07:07:18.542Z,5.00
2022-09-07T07:09:46.204Z,4.78
2022-09-07T07:12:13.838Z,3.90
2022-09-07T07:14:45.028Z,3.83
2022-09-07T07:17:13.428Z,4.00
2022-09-07T07:19:41.093Z,5.33
2022-09-07T07:22:45.620Z,5.63
2022-09-07T07:24:56.416Z,3.88
2022-09-07T07:27:24.441Z,5.25
2022-09-07T07:29:55.302Z,3.80
2022-09-07T07:32:24.289Z,4.18
2022-09-07T07:34:52.130Z,4.60
2022-09-07T07:37:19.767Z,3.47
2022-09-07T07:42:36.292Z,3.72
2022-09-07T07:47:52.201Z,3.60
2022-09-07T07:50:35.251Z,3.80
2022-09-07T07:55:50.856Z,3.85
2022-09-07T07:58:18.965Z,4.13
2022-09-07T08:00:55.846Z,3.53
2022-09-07T08:03:25.462Z,3.88
2022-09-07T08:05:54.506Z,4.68
2022-09-07T08:10:51.222Z,3.92
2022-09-07T08:13:19.345Z,3.07
2022-09-07T08:15:47.267Z,3.88
2022-09-07T08:18:16.831Z,3.13
2022-09-07T08:20:44.568Z,3.90
2022-09-07T08:23:12.260Z,3.03
2022-09-07T08:26:00.761Z,5.35
2022-09-07T08:28:30.742Z,3.60
2022-09-07T08:30:59.344Z,2.53
2022-09-07T08:33:27.140Z,3.65
2022-09-07T08:36:11.100Z,2.58
2022-09-07T08:38:39.400Z,2.58
2022-09-07T08:41:33.459Z,3.88
2022-09-07T08:44:17.346Z,3.92
2022-09-07T08:46:48.187Z,3.20
2022-09-07T08:49:43.057Z,3.63
2022-09-07T08:52:19.954Z,3.03
2022-09-07T08:55:01.284Z,2.78
2022-09-07T08:57:33.064Z,3.13
2022-09-07T09:00:08.807Z,2.88
2022-09-07T09:02:43.158Z,3.95
2022-09-07T09:05:44.784Z,3.85
2022-09-07T09:08:25.892Z,3.22
2022-09-07T09:11:02.627Z,2.60
2022-09-07T09:13:44.278Z,3.70
2022-09-07T09:16:31.683Z,2.90
2022-09-07T09:19:06.374Z,2.95
2022-09-07T09:21:35.687Z,3.65
2022-09-07T09:24:16.608Z,3.20
2022-09-07T09:29:21.075Z,2.90
2022-09-07T09:31:48.870Z,3.33
2022-09-07T09:34:20.396Z,2.92
2022-09-07T09:36:53.630Z,3.00
2022-09-07T09:39:30.339Z,2.30
2022-09-07T09:42:12.998Z,2.65
2022-09-07T09:44:42.443Z,3.38
2022-09-07T09:47:39.594Z,2.58
2022-09-07T09:53:27.854Z,2.58
2022-09-07T09:55:56.145Z,3.30
2022-09-07T10:01:36.392Z,2.40
2022-09-07T10:04:27.581Z,3.30
2022-09-07T10:06:58.042Z,3.50
2022-09-07T10:09:38.277Z,5.03
2022-09-07T10:12:08.540Z,4.45
2022-09-07T10:14:44.431Z,3.30
2022-09-07T10:17:29.585Z,3.45
2022-09-07T10:20:24.474Z,2.55
2022-09-07T10:22:53.656Z,3.22
2022-09-07T10:25:44.252Z,1.95
2022-09-07T10:28:12.863Z,2.28
2022-09-07T10:30:49.641Z,2.55
2022-09-07T10:33:43.239Z,2.78
2022-09-07T10:36:36.791Z,2.38
2022-09-07T10:39:14.104Z,2.67
2022-09-07T10:42:01.503Z,2.88
2022-09-07T10:45:03.294Z,2.55
2022-09-07T10:47:39.480Z,2.40
2022-09-07T10:50:22.792Z,2.05
2022-09-07T10:53:39.141Z,2.13
2022-09-07T11:01:52.583Z,2.15
2022-09-07T11:04:26.218Z,3.08
2022-09-07T11:07:18.297Z,2.22
2022-09-07T11:09:51.677Z,1.92
2022-09-07T11:12:28.114Z,2.28
2022-09-07T11:15:04.854Z,1.70
2022-09-07T11:17:43.308Z,2.13
2022-09-07T11:20:30.209Z,2.28
2022-09-07T11:23:03.101Z,2.30
2022-09-07T11:25:52.656Z,2.13
2022-09-07T11:28:29.429Z,2.13
2022-09-07T11:31:07.145Z,2.30
2022-09-07T11:34:23.677Z,2.28
2022-09-07T11:36:40.407Z,1.60
2022-09-07T11:39:16.369Z,1.98
2022-09-07T11:41:55.637Z,2.78
2022-09-07T11:44:30.253Z,2.05
2022-09-07T11:47:08.445Z,2.65
2022-09-07T11:49:36.613Z,2.65
2022-09-07T11:52:34.026Z,1.50
2022-09-07T11:55:07.270Z,2.38
2022-09-07T11:58:00.141Z,3.65
2022-09-07T12:00:55.194Z,1.83
2022-09-07T12:03:48.428Z,2.17
2022-09-07T12:06:19.261Z,1.88
2022-09-07T12:09:12.545Z,2.25
2022-09-07T12:11:46.166Z,1.50
2022-09-07T12:14:36.631Z,2.20
2022-09-07T12:17:23.802Z,3.05
2022-09-07T12:20:20.307Z,2.10
2022-09-07T12:23:17.808Z,1.50
2022-09-07T12:25:48.119Z,2.13
2022-09-07T12:28:25.139Z,1.58
2022-09-07T12:31:03.235Z,2.13
2022-09-07T12:33:33.235Z,1.95
2022-09-07T12:36:02.858Z,2.90
2022-09-07T12:38:30.733Z,1.13
2022-09-07T12:41:02.142Z,2.30
2022-09-07T12:44:06.703Z,2.15
2022-09-07T12:46:35.349Z,2.20
2022-09-07T12:49:31.159Z,2.03
2022-09-07T12:52:20.778Z,1.73
2022-09-07T12:55:09.895Z,1.98
2022-09-07T12:57:47.464Z,1.88
2022-09-07T13:00:52.774Z,1.83
2022-09-07T13:03:52.815Z,1.55
2022-09-07T13:09:31.812Z,1.90
2022-09-07T13:12:04.913Z,2.83
2022-09-07T13:14:36.999Z,1.55
2022-09-07T13:17:29.161Z,2.10
2022-09-07T13:19:58.069Z,1.85
2022-09-07T13:22:35.444Z,1.80
2022-09-07T13:25:26.351Z,1.47
2022-09-07T13:27:55.780Z,1.90
2022-09-07T13:30:36.995Z,1.70
2022-09-07T13:33:30.024Z,1.73
2022-09-07T13:36:06.228Z,1.75
2022-09-07T13:38:36.639Z,1.30
2022-09-07T13:41:13.408Z,1.20
2022-09-07T13:43:47.769Z,1.52
2022-09-07T13:46:58.345Z,2.58
2022-09-07T13:50:07.373Z,1.42
2022-09-07T13:53:02.806Z,1.75
2022-09-07T13:55:52.936Z,1.27
2022-09-07T13:58:29.673Z,1.33
2022-09-07T14:01:06.258Z,1.58
2022-09-07T14:03:59.886Z,1.40
2022-09-07T14:06:30.518Z,1.02
2022-09-07T14:09:20.270Z,1.00
2022-09-07T14:11:50.958Z,1.33
2022-09-07T14:14:18.585Z,1.67
2022-09-07T14:16:50.219Z,1.25
2022-09-07T14:19:39.586Z,0.82
2022-09-07T14:22:23.513Z,1.10
2022-09-07T14:24:55.635Z,0.80
2022-09-07T14:27:32.602Z,1.10
2022-09-07T14:30:19.169Z,0.68
2022-09-07T14:32:52.882Z,1.45
2022-09-07T14:35:32.504Z,0.93
2022-09-07T14:38:15.089Z,1.80
2022-09-07T14:40:43.148Z,1.38
2022-09-07T14:43:38.530Z,1.63
2022-09-07T14:46:24.208Z,1.80
2022-09-07T14:48:55.252Z,1.80
2022-09-07T14:51:35.101Z,1.27
2022-09-07T14:54:06.738Z,1.10
2022-09-07T14:56:37.794Z,1.60
2022-09-07T14:59:57.461Z,1.58
2022-09-07T15:02:32.224Z,1.10
2022-09-07T15:05:20.657Z,1.80
2022-09-07T15:07:54.518Z,1.50
2022-09-07T15:10:23.219Z,2.10
2022-09-07T15:12:55.055Z,1.33
2022-09-07T15:15:26.737Z,1.08
2022-09-07T15:18:02.883Z,1.00
2022-09-07T15:20:35.135Z,1.30
2022-09-07T15:23:13.413Z,0.80
2022-09-07T15:25:45.378Z,1.45
2022-09-07T15:34:16.358Z,1.13
2022-09-07T15:36:48.769Z,1.30
2022-09-07T15:39:21.149Z,1.13
2022-09-07T15:41:51.633Z,0.80
2022-09-07T15:44:26.024Z,1.52
2022-09-07T15:50:05.566Z,1.40
2022-09-07T15:52:33.465Z,0.98
2022-09-07T15:55:02.182Z,1.83
2022-09-07T16:00:20.078Z,0.80
2022-09-07T16:03:07.844Z,1.10
2022-09-07T16:05:39.928Z,1.17
2022-09-07T16:11:12.480Z,1.10
2022-09-07T16:13:46.795Z,1.08
2022-09-07T16:16:16.408Z,0.80
2022-09-07T16:18:46.946Z,1.40
2022-09-07T16:21:15.990Z,1.02
2022-09-07T16:23:47.315Z,0.95
2022-09-07T16:26:16.547Z,1.23
2022-09-07T16:28:46.485Z,1.25
2022-09-07T16:31:17.483Z,1.45
2022-09-07T16:33:45.254Z,1.65
2022-09-07T16:36:16.279Z,1.23
2022-09-07T16:38:48.237Z,1.67
2022-09-07T16:41:23.361Z,3.20
2022-09-07T16:43:51.132Z,3.28
2022-09-07T16:46:20.811Z,3.05
2022-09-07T16:48:51.409Z,2.65
2022-09-07T16:51:21.500Z,2.25
2022-09-07T16:53:53.251Z,2.30
2022-09-07T16:56:23.845Z,2.67
2022-09-07T16:58:57.369Z,1.70
2022-09-07T17:01:31.606Z,1.48
2022-09-07T17:04:00.995Z,1.50
2022-09-07T17:06:31.246Z,1.92
2022-09-07T17:08:59.572Z,2.60
2022-09-07T17:11:31.195Z,1.52
2022-09-07T17:14:01.447Z,2.13
2022-09-07T17:16:32.688Z,1.60
2022-09-07T17:21:54.002Z,1.50
2022-09-07T17:24:21.733Z,1.05
2022-09-07T17:26:49.354Z,1.25
2022-09-07T17:29:17.165Z,1.52
2022-09-07T17:34:32.478Z,0.85
2022-09-07T17:37:01.191Z,1.40
2022-09-07T17:41:57.844Z,1.35
2022-09-07T17:44:25.552Z,1.70
2022-09-07T17:46:53.215Z,1.15
2022-09-07T17:49:20.892Z,1.50
2022-09-07T17:51:48.701Z,1.48
2022-09-07T17:54:38.447Z,1.55
2022-09-07T17:57:30.964Z,1.50
2022-09-07T18:00:16.343Z,1.80
2022-09-07T18:02:46.321Z,2.20
2022-09-07T18:05:21.438Z,1.95
2022-09-07T18:08:07.700Z,1.80
2022-09-07T18:13:35.082Z,2.63
2022-09-07T18:16:16.681Z,3.67
2022-09-07T18:18:45.872Z,2.42
2022-09-07T18:21:19.818Z,2.90
2022-09-07T18:23:49.094Z,3.28
2022-09-07T18:26:16.840Z,2.42
2022-09-07T18:29:18.961Z,2.60
2022-09-07T18:31:42.976Z,1.83
2022-09-07T18:34:14.226Z,2.08
2022-09-07T18:36:44.015Z,2.70
2022-09-07T18:39:16.985Z,2.65
2022-09-07T18:41:45.940Z,2.97
2022-09-07T18:47:21.427Z,1.70
2022-09-07T18:49:55.132Z,2.13
2022-09-07T18:57:40.499Z,2.42
2022-09-07T19:00:11.637Z,2.63
2022-09-07T19:08:21.622Z,2.33
2022-09-07T19:10:49.756Z,2.53
2022-09-07T19:13:24.217Z,3.67
2022-09-07T19:15:53.317Z,3.28
2022-09-07T19:18:24.103Z,2.83
2022-09-07T19:20:53.058Z,3.38
2022-09-07T19:23:20.840Z,2.60
2022-09-07T19:25:49.047Z,4.18
2022-09-07T19:28:18.727Z,4.17
2022-09-07T19:30:47.472Z,3.58
2022-09-07T19:33:15.255Z,4.00
2022-09-07T19:35:43.000Z,4.43
2022-09-07T19:38:13.028Z,4.68
2022-09-07T19:40:40.903Z,3.80
2022-09-07T19:43:08.582Z,3.35
2022-09-07T19:45:40.731Z,3.67
2022-09-07T19:48:08.448Z,4.57
2022-09-07T19:50:36.099Z,3.20
2022-09-07T19:53:03.823Z,3.72
2022-09-07T19:55:31.680Z,2.53
2022-09-07T19:57:59.349Z,3.42
2022-09-07T20:00:27.710Z,2.83
2022-09-07T20:02:56.012Z,2.78
2022-09-07T20:05:29.918Z,2.95
2022-09-07T20:07:58.717Z,2.28
2022-09-07T20:10:26.405Z,4.15
2022-09-07T20:12:54.541Z,3.10
2022-09-07T20:15:27.767Z,2.40
2022-09-07T20:17:57.047Z,2.67
2022-09-07T20:20:24.894Z,2.50
2022-09-07T20:22:53.025Z,2.22
2022-09-07T20:25:21.467Z,2.87
2022-09-07T20:27:49.571Z,3.72
2022-09-07T20:30:18.067Z,3.33
2022-09-07T20:32:46.258Z,3.05
2022-09-07T20:35:14.841Z,3.17
2022-09-07T20:37:45.236Z,2.17
2022-09-07T20:40:13.573Z,2.33
2022-09-07T20:42:41.959Z,3.45
2022-09-07T20:45:10.115Z,2.80
2022-09-07T20:47:37.783Z,2.50
2022-09-07T20:50:06.762Z,4.00
2022-09-07T20:52:34.767Z,2.00
2022-09-07T20:55:02.568Z,2.17
2022-09-07T20:57:31.397Z,2.80
2022-09-07T21:02:31.549Z,2.70
2022-09-07T21:04:59.721Z,3.85
2022-09-07T21:07:28.145Z,3.72
2022-09-07T21:09:56.031Z,4.18
2022-09-07T21:12:23.824Z,2.97
2022-09-07T21:14:51.556Z,3.25
2022-09-07T21:17:19.284Z,3.20
2022-09-07T21:19:47.823Z,4.18
2022-09-07T21:22:16.973Z,2.08
2022-09-07T21:24:45.011Z,2.65
2022-09-07T21:27:12.743Z,2.17
2022-09-07T21:29:40.405Z,2.80
2022-09-07T21:32:07.998Z,2.70
2022-09-07T21:34:35.569Z,2.30
2022-09-07T21:37:03.486Z,2.38
2022-09-07T21:39:31.479Z,2.70
2022-09-07T21:41:59.233Z,2.55
2022-09-07T21:44:27.092Z,2.47
2022-09-07T21:46:56.982Z,2.67
2022-09-07T21:49:24.896Z,3.08
2022-09-07T21:51:52.600Z,2.92
2022-09-07T21:54:20.437Z,2.83
2022-09-07T21:56:49.342Z,3.00
2022-09-07T21:59:17.047Z,2.80
2022-09-07T22:01:44.710Z,4.38
2022-09-07T22:04:12.465Z,3.17
2022-09-07T22:06:41.084Z,3.05
2022-09-07T22:09:08.753Z,3.08
2022-09-07T22:11:36.524Z,3.17
2022-09-07T22:14:05.675Z,3.78
2022-09-07T22:16:35.167Z,3.15
2022-09-07T22:19:03.044Z,3.17
2022-09-07T22:21:31.264Z,3.70
2022-09-07T22:24:04.022Z,3.30
2022-09-07T22:26:35.483Z,3.63
2022-09-07T22:29:05.082Z,3.50
2022-09-07T22:31:34.769Z,3.30
2022-09-07T22:34:04.591Z,2.70
2022-09-07T22:36:41.870Z,3.65
2022-09-07T22:39:13.575Z,2.85
2022-09-07T22:41:41.992Z,2.47
2022-09-07T22:44:15.333Z,2.88
2022-09-07T22:46:44.369Z,2.75
2022-09-07T22:49:15.934Z,3.40
2022-09-07T22:51:44.416Z,2.78
2022-09-07T22:54:12.319Z,2.80
2022-09-07T22:59:10.360Z,2.95
2022-09-07T23:01:38.936Z,3.22
2022-09-07T23:04:07.568Z,3.47
2022-09-07T23:06:38.615Z,3.42
2022-09-07T23:09:09.366Z,3.67
2022-09-07T23:11:37.790Z,3.90
2022-09-07T23:14:08.569Z,4.55
2022-09-07T23:16:36.251Z,3.13
2022-09-07T23:19:04.368Z,3.60
2022-09-07T23:21:32.013Z,4.35
2022-09-07T23:24:00.295Z,3.35
2022-09-07T23:26:30.248Z,4.57
2022-09-07T23:29:00.658Z,3.42
2022-09-07T23:31:30.351Z,3.20
2022-09-07T23:33:58.504Z,4.00
2022-09-07T23:36:26.856Z,4.13
2022-09-07T23:38:59.944Z,3.80
2022-09-07T23:41:28.554Z,6.38
2022-09-07T23:43:57.109Z,4.25
2022-09-07T23:46:25.155Z,3.22
2022-09-07T23:48:53.165Z,4.05
2022-09-07T23:51:24.507Z,4.55
2022-09-07T23:53:53.131Z,3.85
2022-09-07T23:56:22.234Z,4.57
2022-09-07T23:58:49.976Z,3.97
